sensor_id;sensor_type;location;lat;lon;timestamp;temperature;humidity
3628;DHT22;1830;49.000;12.074;2023-04-15T00:02:14;6.60;99.90
3628;DHT22;1830;49.000;12.074;2023-04-15T00:04:45;6.70;99.90
3628;DHT22;1830;49.000;12.074;2023-04-15T00:07:15;6.80;99.90
3628;DHT22;1830;49.000;12.074;2023-04-15T00:09:43;6.80;99.90
3628;DHT22;1830;49.000;12.074;2023-04-15T00:12:11;6.80;99.90
3628;DHT22;1830;49.000;12.074;2023-04-15T00:14:41;6.60;99.90
3628;DHT22;1830;49.000;12.074;2023-04-15T00:17:12;6.70;99.90
3628;DHT22;1830;49.000;12.074;2023-04-15T00:19:48;6.80;99.90
3628;DHT22;1830;49.000;12.074;2023-04-15T00:22:18;6.90;99.90
3628;DHT22;1830;49.000;12.074;2023-04-15T00:24:46;6.90;99.90
3628;DHT22;1830;49.000;12.074;2023-04-15T00:27:15;6.90;99.90
3628;DHT22;1830;49.000;12.074;2023-04-15T00:29:42;6.80;99.90
3628;DHT22;1830;49.000;12.074;2023-04-15T00:32:09;6.80;99.90
3628;DHT22;1830;49.000;12.074;2023-04-15T00:34:41;6.80;99.90
3628;DHT22;1830;49.000;12.074;2023-04-15T00:37:31;6.80;99.90
3628;DHT22;1830;49.000;12.074;2023-04-15T00:40:11;6.80;99.90
3628;DHT22;1830;49.000;12.074;2023-04-15T00:42:40;6.80;99.90
3628;DHT22;1830;49.000;12.074;2023-04-15T00:45:08;6.80;99.90
3628;DHT22;1830;49.000;12.074;2023-04-15T00:47:53;6.90;99.90
3628;DHT22;1830;49.000;12.074;2023-04-15T00:50:20;6.80;99.90
3628;DHT22;1830;49.000;12.074;2023-04-15T00:53:05;6.80;99.90
3628;DHT22;1830;49.000;12.074;2023-04-15T00:55:53;7.00;99.90
3628;DHT22;1830;49.000;12.074;2023-04-15T00:58:52;6.90;99.90
3628;DHT22;1830;49.000;12.074;2023-04-15T01:01:24;6.90;99.90
3628;DHT22;1830;49.000;12.074;2023-04-15T01:03:57;6.80;99.90
3628;DHT22;1830;49.000;12.074;2023-04-15T01:06:50;6.90;99.90
3628;DHT22;1830;49.000;12.074;2023-04-15T01:09:35;6.90;99.90
3628;DHT22;1830;49.000;12.074;2023-04-15T01:12:09;6.80;99.90
3628;DHT22;1830;49.000;12.074;2023-04-15T01:14:42;6.70;99.90
3628;DHT22;1830;49.000;12.074;2023-04-15T01:17:15;6.80;99.90
3628;DHT22;1830;49.000;12.074;2023-04-15T01:19:47;6.80;99.90
3628;DHT22;1830;49.000;12.074;2023-04-15T01:22:27;6.90;99.90
3628;DHT22;1830;49.000;12.074;2023-04-15T01:25:15;6.90;99.90
3628;DHT22;1830;49.000;12.074;2023-04-15T01:27:52;6.70;99.90
3628;DHT22;1830;49.000;12.074;2023-04-15T01:30:49;6.80;99.90
3628;DHT22;1830;49.000;12.074;2023-04-15T01:34:02;6.80;99.90
3628;DHT22;1830;49.000;12.074;2023-04-15T01:36:56;6.90;99.90
3628;DHT22;1830;49.000;12.074;2023-04-15T01:39:36;6.80;99.90
3628;DHT22;1830;49.000;12.074;2023-04-15T01:42:04;6.90;99.90
3628;DHT22;1830;49.000;12.074;2023-04-15T01:44:35;6.90;99.90
3628;DHT22;1830;49.000;12.074;2023-04-15T01:47:20;6.90;99.90
3628;DHT22;1830;49.000;12.074;2023-04-15T01:53:21;7.00;99.90
3628;DHT22;1830;49.000;12.074;2023-04-15T01:55:51;7.00;99.90
3628;DHT22;1830;49.000;12.074;2023-04-15T01:58:22;6.90;99.90
3628;DHT22;1830;49.000;12.074;2023-04-15T02:01:15;6.90;99.90
3628;DHT22;1830;49.000;12.074;2023-04-15T02:04:03;6.70;99.90
3628;DHT22;1830;49.000;12.074;2023-04-15T02:06:38;6.80;99.90
3628;DHT22;1830;49.000;12.074;2023-04-15T02:09:19;6.70;99.90
3628;DHT22;1830;49.000;12.074;2023-04-15T02:11:51;6.70;99.90
3628;DHT22;1830;49.000;12.074;2023-04-15T02:14:33;6.70;99.90
3628;DHT22;1830;49.000;12.074;2023-04-15T02:17:10;6.70;99.90
3628;DHT22;1830;49.000;12.074;2023-04-15T02:19:39;6.60;99.90
3628;DHT22;1830;49.000;12.074;2023-04-15T02:22:28;6.70;99.90
3628;DHT22;1830;49.000;12.074;2023-04-15T02:25:09;6.70;99.90
3628;DHT22;1830;49.000;12.074;2023-04-15T02:27:45;6.80;99.90
3628;DHT22;1830;49.000;12.074;2023-04-15T02:30:22;6.80;99.90
3628;DHT22;1830;49.000;12.074;2023-04-15T02:32:51;6.70;99.90
3628;DHT22;1830;49.000;12.074;2023-04-15T02:35:32;6.80;99.90
3628;DHT22;1830;49.000;12.074;2023-04-15T02:38:06;6.80;99.90
3628;DHT22;1830;49.000;12.074;2023-04-15T02:40:51;6.80;99.90
3628;DHT22;1830;49.000;12.074;2023-04-15T02:43:22;6.80;99.90
3628;DHT22;1830;49.000;12.074;2023-04-15T02:45:54;6.70;99.90
3628;DHT22;1830;49.000;12.074;2023-04-15T02:48:33;6.70;99.90
3628;DHT22;1830;49.000;12.074;2023-04-15T02:51:21;6.70;99.90
3628;DHT22;1830;49.000;12.074;2023-04-15T02:53:54;6.80;99.90
3628;DHT22;1830;49.000;12.074;2023-04-15T02:56:43;6.80;99.90
3628;DHT22;1830;49.000;12.074;2023-04-15T02:59:23;6.80;99.90
3628;DHT22;1830;49.000;12.074;2023-04-15T03:02:03;6.70;99.90
3628;DHT22;1830;49.000;12.074;2023-04-15T03:04:56;6.80;99.90
3628;DHT22;1830;49.000;12.074;2023-04-15T03:07:44;6.80;99.90
3628;DHT22;1830;49.000;12.074;2023-04-15T03:10:56;6.70;99.90
3628;DHT22;1830;49.000;12.074;2023-04-15T03:13:48;6.60;99.90
3628;DHT22;1830;49.000;12.074;2023-04-15T03:16:31;6.50;99.90
3628;DHT22;1830;49.000;12.074;2023-04-15T03:19:22;6.40;99.90
3628;DHT22;1830;49.000;12.074;2023-04-15T03:25:26;6.50;99.90
3628;DHT22;1830;49.000;12.074;2023-04-15T03:31:39;6.20;99.90
3628;DHT22;1830;49.000;12.074;2023-04-15T03:34:41;6.30;99.90
3628;DHT22;1830;49.000;12.074;2023-04-15T03:37:24;6.30;99.90
3628;DHT22;1830;49.000;12.074;2023-04-15T03:44:06;6.20;99.90
3628;DHT22;1830;49.000;12.074;2023-04-15T03:49:43;6.00;99.90
3628;DHT22;1830;49.000;12.074;2023-04-15T03:52:13;6.10;99.90
3628;DHT22;1830;49.000;12.074;2023-04-15T03:54:57;6.10;99.90
3628;DHT22;1830;49.000;12.074;2023-04-15T04:12:06;5.70;99.90
3628;DHT22;1830;49.000;12.074;2023-04-15T04:21:33;5.80;99.90
3628;DHT22;1830;49.000;12.074;2023-04-15T04:24:10;6.00;99.90
3628;DHT22;1830;49.000;12.074;2023-04-15T04:26:51;6.00;99.90
3628;DHT22;1830;49.000;12.074;2023-04-15T04:29:18;6.00;99.90
3628;DHT22;1830;49.000;12.074;2023-04-15T04:31:54;6.00;99.90
3628;DHT22;1830;49.000;12.074;2023-04-15T04:37:52;5.90;99.90
3628;DHT22;1830;49.000;12.074;2023-04-15T04:40:20;5.90;99.90
3628;DHT22;1830;49.000;12.074;2023-04-15T04:43:17;5.90;99.90
3628;DHT22;1830;49.000;12.074;2023-04-15T04:46:06;5.90;99.90
3628;DHT22;1830;49.000;12.074;2023-04-15T04:49:08;6.00;99.90
3628;DHT22;1830;49.000;12.074;2023-04-15T04:52:16;6.00;99.90
3628;DHT22;1830;49.000;12.074;2023-04-15T04:55:31;6.00;99.90
3628;DHT22;1830;49.000;12.074;2023-04-15T04:58:35;5.90;99.90
3628;DHT22;1830;49.000;12.074;2023-04-15T05:01:17;6.10;99.90
3628;DHT22;1830;49.000;12.074;2023-04-15T05:37:17;5.90;99.90
3628;DHT22;1830;49.000;12.074;2023-04-15T05:39:45;6.00;99.90
3628;DHT22;1830;49.000;12.074;2023-04-15T05:42:12;6.20;99.90
3628;DHT22;1830;49.000;12.074;2023-04-15T05:44:40;6.00;99.90
3628;DHT22;1830;49.000;12.074;2023-04-15T05:47:06;5.80;99.90
3628;DHT22;1830;49.000;12.074;2023-04-15T05:49:34;5.80;99.90
3628;DHT22;1830;49.000;12.074;2023-04-15T05:52:01;5.70;99.90
3628;DHT22;1830;49.000;12.074;2023-04-15T05:54:30;5.70;99.90
3628;DHT22;1830;49.000;12.074;2023-04-15T05:56:57;5.70;99.90
3628;DHT22;1830;49.000;12.074;2023-04-15T05:59:24;5.80;99.90
3628;DHT22;1830;49.000;12.074;2023-04-15T06:01:51;5.70;99.90
3628;DHT22;1830;49.000;12.074;2023-04-15T06:04:18;5.60;99.90
3628;DHT22;1830;49.000;12.074;2023-04-15T06:06:45;5.60;99.90
3628;DHT22;1830;49.000;12.074;2023-04-15T06:09:11;5.70;99.90
3628;DHT22;1830;49.000;12.074;2023-04-15T06:11:39;5.80;99.90
3628;DHT22;1830;49.000;12.074;2023-04-15T06:14:06;5.80;99.90
3628;DHT22;1830;49.000;12.074;2023-04-15T06:16:33;5.90;99.90
3628;DHT22;1830;49.000;12.074;2023-04-15T06:19:01;5.90;99.90
3628;DHT22;1830;49.000;12.074;2023-04-15T06:21:28;5.80;99.90
3628;DHT22;1830;49.000;12.074;2023-04-15T06:23:55;5.80;99.90
3628;DHT22;1830;49.000;12.074;2023-04-15T06:26:22;5.80;99.90
3628;DHT22;1830;49.000;12.074;2023-04-15T06:28:50;5.80;99.90
3628;DHT22;1830;49.000;12.074;2023-04-15T06:31:17;5.80;99.90
3628;DHT22;1830;49.000;12.074;2023-04-15T06:33:44;5.80;99.90
3628;DHT22;1830;49.000;12.074;2023-04-15T06:36:11;5.90;99.90
3628;DHT22;1830;49.000;12.074;2023-04-15T06:38:38;5.80;99.90
3628;DHT22;1830;49.000;12.074;2023-04-15T06:41:04;5.80;99.90
3628;DHT22;1830;49.000;12.074;2023-04-15T06:43:31;5.80;99.90
3628;DHT22;1830;49.000;12.074;2023-04-15T06:45:59;5.90;99.90
3628;DHT22;1830;49.000;12.074;2023-04-15T06:48:26;5.80;99.90
3628;DHT22;1830;49.000;12.074;2023-04-15T06:50:53;5.80;99.90
3628;DHT22;1830;49.000;12.074;2023-04-15T06:53:20;5.70;99.90
3628;DHT22;1830;49.000;12.074;2023-04-15T06:55:47;5.90;99.90
3628;DHT22;1830;49.000;12.074;2023-04-15T06:58:14;5.90;99.90
3628;DHT22;1830;49.000;12.074;2023-04-15T07:00:41;5.80;99.90
3628;DHT22;1830;49.000;12.074;2023-04-15T07:03:11;5.70;99.90
3628;DHT22;1830;49.000;12.074;2023-04-15T07:05:39;5.60;99.90
3628;DHT22;1830;49.000;12.074;2023-04-15T07:08:06;5.60;99.90
3628;DHT22;1830;49.000;12.074;2023-04-15T07:10:33;5.70;99.90
3628;DHT22;1830;49.000;12.074;2023-04-15T07:13:00;5.80;99.90
3628;DHT22;1830;49.000;12.074;2023-04-15T07:15:27;6.00;99.90
3628;DHT22;1830;49.000;12.074;2023-04-15T07:17:54;5.90;99.90
3628;DHT22;1830;49.000;12.074;2023-04-15T07:20:22;5.90;99.90
3628;DHT22;1830;49.000;12.074;2023-04-15T07:22:49;5.90;99.90
3628;DHT22;1830;49.000;12.074;2023-04-15T07:25:16;5.90;99.90
3628;DHT22;1830;49.000;12.074;2023-04-15T07:27:43;5.90;99.90
3628;DHT22;1830;49.000;12.074;2023-04-15T07:30:10;5.80;99.90
3628;DHT22;1830;49.000;12.074;2023-04-15T07:32:38;5.80;99.90
3628;DHT22;1830;49.000;12.074;2023-04-15T07:35:05;5.90;99.90
3628;DHT22;1830;49.000;12.074;2023-04-15T07:37:33;5.90;99.90
3628;DHT22;1830;49.000;12.074;2023-04-15T07:40:00;6.00;99.90
3628;DHT22;1830;49.000;12.074;2023-04-15T07:42:29;5.90;99.90
3628;DHT22;1830;49.000;12.074;2023-04-15T07:44:56;5.90;99.90
3628;DHT22;1830;49.000;12.074;2023-04-15T07:47:23;5.90;99.90
3628;DHT22;1830;49.000;12.074;2023-04-15T07:49:50;6.00;99.90
3628;DHT22;1830;49.000;12.074;2023-04-15T07:52:17;6.00;99.90
3628;DHT22;1830;49.000;12.074;2023-04-15T07:54:45;6.00;99.90
3628;DHT22;1830;49.000;12.074;2023-04-15T07:57:12;6.00;99.90
3628;DHT22;1830;49.000;12.074;2023-04-15T07:59:39;6.00;99.90
3628;DHT22;1830;49.000;12.074;2023-04-15T08:02:06;6.00;99.90
3628;DHT22;1830;49.000;12.074;2023-04-15T08:04:33;6.00;99.90
3628;DHT22;1830;49.000;12.074;2023-04-15T08:07:00;6.00;99.90
3628;DHT22;1830;49.000;12.074;2023-04-15T08:09:27;6.10;99.90
3628;DHT22;1830;49.000;12.074;2023-04-15T08:11:55;6.10;99.90
3628;DHT22;1830;49.000;12.074;2023-04-15T08:14:23;6.10;99.90
3628;DHT22;1830;49.000;12.074;2023-04-15T08:16:49;6.00;99.90
3628;DHT22;1830;49.000;12.074;2023-04-15T08:19:16;6.20;99.90
3628;DHT22;1830;49.000;12.074;2023-04-15T08:21:43;6.20;99.90
3628;DHT22;1830;49.000;12.074;2023-04-15T08:24:10;6.10;99.90
3628;DHT22;1830;49.000;12.074;2023-04-15T08:26:37;6.30;99.90
3628;DHT22;1830;49.000;12.074;2023-04-15T08:29:05;6.20;99.90
3628;DHT22;1830;49.000;12.074;2023-04-15T08:31:32;6.20;99.90
3628;DHT22;1830;49.000;12.074;2023-04-15T08:34:00;6.10;99.90
3628;DHT22;1830;49.000;12.074;2023-04-15T08:36:28;6.20;99.90
3628;DHT22;1830;49.000;12.074;2023-04-15T08:38:55;6.10;99.90
3628;DHT22;1830;49.000;12.074;2023-04-15T08:41:23;6.10;99.90
3628;DHT22;1830;49.000;12.074;2023-04-15T08:43:56;6.10;99.90
3628;DHT22;1830;49.000;12.074;2023-04-15T08:46:25;6.10;99.90
3628;DHT22;1830;49.000;12.074;2023-04-15T08:48:56;6.30;99.90
3628;DHT22;1830;49.000;12.074;2023-04-15T08:51:23;6.30;99.90
3628;DHT22;1830;49.000;12.074;2023-04-15T08:53:50;6.30;99.90
3628;DHT22;1830;49.000;12.074;2023-04-15T08:56:18;6.30;99.90
3628;DHT22;1830;49.000;12.074;2023-04-15T08:58:47;6.40;99.90
3628;DHT22;1830;49.000;12.074;2023-04-15T09:01:14;6.40;99.90
3628;DHT22;1830;49.000;12.074;2023-04-15T09:03:43;6.40;99.90
3628;DHT22;1830;49.000;12.074;2023-04-15T09:06:11;6.20;99.90
3628;DHT22;1830;49.000;12.074;2023-04-15T09:08:37;6.30;99.90
3628;DHT22;1830;49.000;12.074;2023-04-15T09:11:04;6.10;99.90
3628;DHT22;1830;49.000;12.074;2023-04-15T09:13:31;6.20;99.90
3628;DHT22;1830;49.000;12.074;2023-04-15T09:16:00;6.30;99.90
3628;DHT22;1830;49.000;12.074;2023-04-15T09:18:29;6.30;99.90
3628;DHT22;1830;49.000;12.074;2023-04-15T09:21:03;6.30;99.90
3628;DHT22;1830;49.000;12.074;2023-04-15T09:23:32;6.30;99.90
3628;DHT22;1830;49.000;12.074;2023-04-15T09:25:59;6.30;99.90
3628;DHT22;1830;49.000;12.074;2023-04-15T09:28:27;6.40;99.90
3628;DHT22;1830;49.000;12.074;2023-04-15T09:30:57;6.30;99.90
3628;DHT22;1830;49.000;12.074;2023-04-15T09:33:24;6.40;99.90
3628;DHT22;1830;49.000;12.074;2023-04-15T09:36:00;6.40;99.90
3628;DHT22;1830;49.000;12.074;2023-04-15T09:38:28;6.40;99.90
3628;DHT22;1830;49.000;12.074;2023-04-15T09:40:57;6.50;99.90
3628;DHT22;1830;49.000;12.074;2023-04-15T09:43:37;6.60;99.90
3628;DHT22;1830;49.000;12.074;2023-04-15T09:46:04;6.70;99.90
3628;DHT22;1830;49.000;12.074;2023-04-15T09:48:31;6.50;99.90
3628;DHT22;1830;49.000;12.074;2023-04-15T09:50:59;6.50;99.90
3628;DHT22;1830;49.000;12.074;2023-04-15T09:53:27;6.60;99.90
3628;DHT22;1830;49.000;12.074;2023-04-15T09:55:55;6.50;99.90
3628;DHT22;1830;49.000;12.074;2023-04-15T09:58:23;6.60;99.90
3628;DHT22;1830;49.000;12.074;2023-04-15T10:00:52;6.80;99.90
3628;DHT22;1830;49.000;12.074;2023-04-15T10:03:21;6.70;99.90
3628;DHT22;1830;49.000;12.074;2023-04-15T10:05:50;6.70;99.90
3628;DHT22;1830;49.000;12.074;2023-04-15T10:08:19;6.70;99.90
3628;DHT22;1830;49.000;12.074;2023-04-15T10:10:47;6.70;99.90
3628;DHT22;1830;49.000;12.074;2023-04-15T10:13:16;6.70;99.90
3628;DHT22;1830;49.000;12.074;2023-04-15T10:15:44;6.80;99.90
3628;DHT22;1830;49.000;12.074;2023-04-15T10:18:15;6.80;99.90
3628;DHT22;1830;49.000;12.074;2023-04-15T10:20:43;6.80;99.90
3628;DHT22;1830;49.000;12.074;2023-04-15T10:23:11;6.70;99.90
3628;DHT22;1830;49.000;12.074;2023-04-15T10:25:39;6.70;99.90
3628;DHT22;1830;49.000;12.074;2023-04-15T10:28:07;6.80;99.90
3628;DHT22;1830;49.000;12.074;2023-04-15T10:30:35;6.80;99.90
3628;DHT22;1830;49.000;12.074;2023-04-15T10:33:03;6.70;99.90
3628;DHT22;1830;49.000;12.074;2023-04-15T10:35:31;6.70;99.90
3628;DHT22;1830;49.000;12.074;2023-04-15T10:37:59;6.80;99.90
3628;DHT22;1830;49.000;12.074;2023-04-15T10:40:28;6.80;99.90
3628;DHT22;1830;49.000;12.074;2023-04-15T10:42:59;6.90;99.90
3628;DHT22;1830;49.000;12.074;2023-04-15T10:45:27;6.90;99.90
3628;DHT22;1830;49.000;12.074;2023-04-15T10:47:55;6.80;99.90
3628;DHT22;1830;49.000;12.074;2023-04-15T10:50:25;7.00;99.90
3628;DHT22;1830;49.000;12.074;2023-04-15T10:52:53;7.10;99.90
3628;DHT22;1830;49.000;12.074;2023-04-15T10:55:24;7.20;99.90
3628;DHT22;1830;49.000;12.074;2023-04-15T10:57:52;7.40;99.90
3628;DHT22;1830;49.000;12.074;2023-04-15T11:00:24;7.60;99.90
3628;DHT22;1830;49.000;12.074;2023-04-15T11:02:53;7.60;99.90
3628;DHT22;1830;49.000;12.074;2023-04-15T11:05:21;7.70;99.90
3628;DHT22;1830;49.000;12.074;2023-04-15T11:07:50;7.80;99.90
3628;DHT22;1830;49.000;12.074;2023-04-15T11:10:51;8.00;99.90
3628;DHT22;1830;49.000;12.074;2023-04-15T11:13:20;8.00;99.90
3628;DHT22;1830;49.000;12.074;2023-04-15T11:15:49;8.10;99.90
3628;DHT22;1830;49.000;12.074;2023-04-15T11:18:18;8.10;99.90
3628;DHT22;1830;49.000;12.074;2023-04-15T11:20:47;7.90;99.90
3628;DHT22;1830;49.000;12.074;2023-04-15T11:23:16;8.00;99.90
3628;DHT22;1830;49.000;12.074;2023-04-15T11:25:43;8.00;99.90
3628;DHT22;1830;49.000;12.074;2023-04-15T11:28:12;8.10;99.90
3628;DHT22;1830;49.000;12.074;2023-04-15T11:30:40;8.00;99.90
3628;DHT22;1830;49.000;12.074;2023-04-15T11:33:11;8.20;99.90
3628;DHT22;1830;49.000;12.074;2023-04-15T11:35:40;8.10;99.90
3628;DHT22;1830;49.000;12.074;2023-04-15T11:38:09;7.90;99.90
3628;DHT22;1830;49.000;12.074;2023-04-15T11:40:36;7.90;99.90
3628;DHT22;1830;49.000;12.074;2023-04-15T11:43:04;7.90;99.90
3628;DHT22;1830;49.000;12.074;2023-04-15T11:45:31;7.80;99.90
3628;DHT22;1830;49.000;12.074;2023-04-15T11:48:06;7.80;99.90
3628;DHT22;1830;49.000;12.074;2023-04-15T11:50:35;7.90;99.90
3628;DHT22;1830;49.000;12.074;2023-04-15T11:53:04;7.90;99.90
3628;DHT22;1830;49.000;12.074;2023-04-15T11:55:32;8.00;99.90
3628;DHT22;1830;49.000;12.074;2023-04-15T11:58:10;8.10;99.90
3628;DHT22;1830;49.000;12.074;2023-04-15T12:00:38;8.20;99.90
3628;DHT22;1830;49.000;12.074;2023-04-15T12:03:13;8.30;99.90
3628;DHT22;1830;49.000;12.074;2023-04-15T12:06:05;8.40;99.90
3628;DHT22;1830;49.000;12.074;2023-04-15T12:08:52;8.30;99.90
3628;DHT22;1830;49.000;12.074;2023-04-15T12:11:19;8.30;99.90
3628;DHT22;1830;49.000;12.074;2023-04-15T12:13:47;8.30;99.90
3628;DHT22;1830;49.000;12.074;2023-04-15T12:16:16;8.30;99.90
3628;DHT22;1830;49.000;12.074;2023-04-15T12:18:47;8.30;99.90
3628;DHT22;1830;49.000;12.074;2023-04-15T12:21:20;8.20;99.90
3628;DHT22;1830;49.000;12.074;2023-04-15T12:23:48;8.20;99.90
3628;DHT22;1830;49.000;12.074;2023-04-15T12:26:16;8.20;99.90
3628;DHT22;1830;49.000;12.074;2023-04-15T12:28:43;8.30;99.90
3628;DHT22;1830;49.000;12.074;2023-04-15T12:31:11;8.30;99.90
3628;DHT22;1830;49.000;12.074;2023-04-15T12:33:38;8.20;99.90
3628;DHT22;1830;49.000;12.074;2023-04-15T12:36:05;8.20;99.90
3628;DHT22;1830;49.000;12.074;2023-04-15T12:38:34;8.10;99.90
3628;DHT22;1830;49.000;12.074;2023-04-15T12:41:01;8.10;99.90
3628;DHT22;1830;49.000;12.074;2023-04-15T12:43:27;8.00;99.90
3628;DHT22;1830;49.000;12.074;2023-04-15T12:45:54;8.00;99.90
3628;DHT22;1830;49.000;12.074;2023-04-15T12:48:21;8.00;99.90
3628;DHT22;1830;49.000;12.074;2023-04-15T12:50:48;8.00;99.90
3628;DHT22;1830;49.000;12.074;2023-04-15T12:53:15;8.00;99.90
3628;DHT22;1830;49.000;12.074;2023-04-15T12:55:43;7.90;99.90
3628;DHT22;1830;49.000;12.074;2023-04-15T12:58:10;7.90;99.90
3628;DHT22;1830;49.000;12.074;2023-04-15T13:00:37;7.80;99.90
3628;DHT22;1830;49.000;12.074;2023-04-15T13:03:04;7.90;99.90
3628;DHT22;1830;49.000;12.074;2023-04-15T13:05:31;7.90;99.90
3628;DHT22;1830;49.000;12.074;2023-04-15T13:07:58;7.90;99.90
3628;DHT22;1830;49.000;12.074;2023-04-15T13:10:25;7.80;99.90
3628;DHT22;1830;49.000;12.074;2023-04-15T13:12:54;7.70;99.90
3628;DHT22;1830;49.000;12.074;2023-04-15T13:15:21;7.60;99.90
3628;DHT22;1830;49.000;12.074;2023-04-15T13:17:48;7.60;99.90
3628;DHT22;1830;49.000;12.074;2023-04-15T13:20:16;7.60;99.90
3628;DHT22;1830;49.000;12.074;2023-04-15T13:22:43;7.60;99.90
3628;DHT22;1830;49.000;12.074;2023-04-15T13:25:10;7.60;99.90
3628;DHT22;1830;49.000;12.074;2023-04-15T13:27:37;7.60;99.90
3628;DHT22;1830;49.000;12.074;2023-04-15T13:30:06;7.80;99.90
3628;DHT22;1830;49.000;12.074;2023-04-15T13:32:33;7.70;99.90
3628;DHT22;1830;49.000;12.074;2023-04-15T13:35:00;7.70;99.90
3628;DHT22;1830;49.000;12.074;2023-04-15T13:37:28;7.60;99.90
3628;DHT22;1830;49.000;12.074;2023-04-15T13:39:55;7.60;99.90
3628;DHT22;1830;49.000;12.074;2023-04-15T13:42:22;7.60;99.90
3628;DHT22;1830;49.000;12.074;2023-04-15T13:44:49;7.60;99.90
3628;DHT22;1830;49.000;12.074;2023-04-15T13:47:18;7.60;99.90
3628;DHT22;1830;49.000;12.074;2023-04-15T13:49:45;7.70;99.90
3628;DHT22;1830;49.000;12.074;2023-04-15T13:52:12;7.70;99.90
3628;DHT22;1830;49.000;12.074;2023-04-15T13:54:39;7.60;99.90
3628;DHT22;1830;49.000;12.074;2023-04-15T13:57:06;7.70;99.90
3628;DHT22;1830;49.000;12.074;2023-04-15T13:59:35;7.60;99.90
3628;DHT22;1830;49.000;12.074;2023-04-15T14:02:02;7.60;99.90
3628;DHT22;1830;49.000;12.074;2023-04-15T14:04:31;7.60;99.90
3628;DHT22;1830;49.000;12.074;2023-04-15T14:06:58;7.50;99.90
3628;DHT22;1830;49.000;12.074;2023-04-15T14:09:25;7.40;99.90
3628;DHT22;1830;49.000;12.074;2023-04-15T14:11:52;7.40;99.90
3628;DHT22;1830;49.000;12.074;2023-04-15T14:14:19;7.40;99.90
3628;DHT22;1830;49.000;12.074;2023-04-15T14:16:45;7.30;99.90
3628;DHT22;1830;49.000;12.074;2023-04-15T14:19:13;7.40;99.90
3628;DHT22;1830;49.000;12.074;2023-04-15T14:21:41;7.40;99.90
3628;DHT22;1830;49.000;12.074;2023-04-15T14:24:08;7.50;99.90
3628;DHT22;1830;49.000;12.074;2023-04-15T14:26:35;7.50;99.90
3628;DHT22;1830;49.000;12.074;2023-04-15T14:29:02;7.50;99.90
3628;DHT22;1830;49.000;12.074;2023-04-15T14:31:29;7.60;99.90
3628;DHT22;1830;49.000;12.074;2023-04-15T14:33:55;7.50;99.90
3628;DHT22;1830;49.000;12.074;2023-04-15T14:36:22;7.50;99.90
3628;DHT22;1830;49.000;12.074;2023-04-15T14:38:50;7.50;99.90
3628;DHT22;1830;49.000;12.074;2023-04-15T14:41:17;7.50;99.90
3628;DHT22;1830;49.000;12.074;2023-04-15T14:43:44;7.50;99.90
3628;DHT22;1830;49.000;12.074;2023-04-15T14:46:11;7.60;99.90
3628;DHT22;1830;49.000;12.074;2023-04-15T14:48:38;7.70;99.90
3628;DHT22;1830;49.000;12.074;2023-04-15T14:51:05;7.70;99.90
3628;DHT22;1830;49.000;12.074;2023-04-15T14:53:32;7.70;99.90
3628;DHT22;1830;49.000;12.074;2023-04-15T14:56:00;7.70;99.90
3628;DHT22;1830;49.000;12.074;2023-04-15T14:58:27;7.80;99.90
3628;DHT22;1830;49.000;12.074;2023-04-15T15:00:54;7.80;99.90
3628;DHT22;1830;49.000;12.074;2023-04-15T15:03:22;7.90;99.90
3628;DHT22;1830;49.000;12.074;2023-04-15T15:05:49;7.90;99.90
3628;DHT22;1830;49.000;12.074;2023-04-15T15:08:18;7.90;99.90
3628;DHT22;1830;49.000;12.074;2023-04-15T15:10:45;8.00;99.90
3628;DHT22;1830;49.000;12.074;2023-04-15T15:13:13;8.00;99.90
3628;DHT22;1830;49.000;12.074;2023-04-15T15:15:41;8.00;99.90
3628;DHT22;1830;49.000;12.074;2023-04-15T15:18:08;8.10;99.90
3628;DHT22;1830;49.000;12.074;2023-04-15T15:20:35;8.00;99.90
3628;DHT22;1830;49.000;12.074;2023-04-15T15:23:02;8.00;99.90
3628;DHT22;1830;49.000;12.074;2023-04-15T15:25:29;7.90;99.90
3628;DHT22;1830;49.000;12.074;2023-04-15T15:27:56;7.80;99.90
3628;DHT22;1830;49.000;12.074;2023-04-15T15:30:24;7.70;99.90
3628;DHT22;1830;49.000;12.074;2023-04-15T15:32:51;7.70;99.90
3628;DHT22;1830;49.000;12.074;2023-04-15T15:35:18;7.80;99.90
3628;DHT22;1830;49.000;12.074;2023-04-15T15:37:47;7.70;99.90
3628;DHT22;1830;49.000;12.074;2023-04-15T15:40:14;7.80;99.90
3628;DHT22;1830;49.000;12.074;2023-04-15T15:42:41;7.80;99.90
3628;DHT22;1830;49.000;12.074;2023-04-15T15:45:08;7.80;99.90
3628;DHT22;1830;49.000;12.074;2023-04-15T15:47:36;7.80;99.90
3628;DHT22;1830;49.000;12.074;2023-04-15T15:50:04;7.80;99.90
3628;DHT22;1830;49.000;12.074;2023-04-15T15:52:32;7.80;99.90
3628;DHT22;1830;49.000;12.074;2023-04-15T15:54:59;7.80;99.90
3628;DHT22;1830;49.000;12.074;2023-04-15T15:57:26;7.80;99.90
3628;DHT22;1830;49.000;12.074;2023-04-15T15:59:53;7.90;99.90
3628;DHT22;1830;49.000;12.074;2023-04-15T16:02:20;7.80;99.90
3628;DHT22;1830;49.000;12.074;2023-04-15T16:04:48;7.90;99.90
3628;DHT22;1830;49.000;12.074;2023-04-15T16:07:17;7.90;99.90
3628;DHT22;1830;49.000;12.074;2023-04-15T16:09:43;7.90;99.90
3628;DHT22;1830;49.000;12.074;2023-04-15T16:12:10;7.80;99.90
3628;DHT22;1830;49.000;12.074;2023-04-15T16:14:38;7.80;99.90
3628;DHT22;1830;49.000;12.074;2023-04-15T16:17:04;7.80;99.90
3628;DHT22;1830;49.000;12.074;2023-04-15T16:19:31;7.80;99.90
3628;DHT22;1830;49.000;12.074;2023-04-15T16:22:00;7.80;99.90
3628;DHT22;1830;49.000;12.074;2023-04-15T16:24:27;7.90;99.90
3628;DHT22;1830;49.000;12.074;2023-04-15T16:26:55;7.90;99.90
3628;DHT22;1830;49.000;12.074;2023-04-15T16:29:23;7.90;99.90
3628;DHT22;1830;49.000;12.074;2023-04-15T16:31:51;7.80;99.90
3628;DHT22;1830;49.000;12.074;2023-04-15T16:34:17;7.90;99.90
3628;DHT22;1830;49.000;12.074;2023-04-15T16:36:44;8.00;99.90
3628;DHT22;1830;49.000;12.074;2023-04-15T16:39:14;8.00;99.90
3628;DHT22;1830;49.000;12.074;2023-04-15T16:41:41;8.00;99.90
3628;DHT22;1830;49.000;12.074;2023-04-15T16:44:08;8.00;99.90
3628;DHT22;1830;49.000;12.074;2023-04-15T16:46:35;8.00;99.90
3628;DHT22;1830;49.000;12.074;2023-04-15T16:49:02;7.90;99.90
3628;DHT22;1830;49.000;12.074;2023-04-15T16:51:29;7.90;99.90
3628;DHT22;1830;49.000;12.074;2023-04-15T16:53:56;7.90;99.90
3628;DHT22;1830;49.000;12.074;2023-04-15T16:56:24;8.10;99.90
3628;DHT22;1830;49.000;12.074;2023-04-15T16:58:52;8.00;99.90
3628;DHT22;1830;49.000;12.074;2023-04-15T17:01:19;8.10;99.90
3628;DHT22;1830;49.000;12.074;2023-04-15T17:03:47;8.00;99.90
3628;DHT22;1830;49.000;12.074;2023-04-15T17:06:14;7.90;99.90
3628;DHT22;1830;49.000;12.074;2023-04-15T17:08:41;7.90;99.90
3628;DHT22;1830;49.000;12.074;2023-04-15T17:11:08;7.80;99.90
3628;DHT22;1830;49.000;12.074;2023-04-15T17:13:37;7.90;99.90
3628;DHT22;1830;49.000;12.074;2023-04-15T17:16:04;7.90;99.90
3628;DHT22;1830;49.000;12.074;2023-04-15T17:18:31;7.90;99.90
3628;DHT22;1830;49.000;12.074;2023-04-15T17:20:58;7.90;99.90
3628;DHT22;1830;49.000;12.074;2023-04-15T17:23:25;7.90;99.90
3628;DHT22;1830;49.000;12.074;2023-04-15T17:25:53;7.90;99.90
3628;DHT22;1830;49.000;12.074;2023-04-15T17:28:20;7.80;99.90
3628;DHT22;1830;49.000;12.074;2023-04-15T17:30:48;7.90;99.90
3628;DHT22;1830;49.000;12.074;2023-04-15T17:33:15;8.00;99.90
3628;DHT22;1830;49.000;12.074;2023-04-15T17:35:42;8.00;99.90
3628;DHT22;1830;49.000;12.074;2023-04-15T17:38:09;7.90;99.90
3628;DHT22;1830;49.000;12.074;2023-04-15T17:40:35;7.90;99.90
3628;DHT22;1830;49.000;12.074;2023-04-15T17:43:02;8.00;99.90